Time;durP1;ratioP1;P1;durP2;ratioP2;P2;SDS_P1;SDS_P2;PMS_P1;PMS_P2;Temp;Humidity;BMP_temperature;BMP_pressure;BME280_temperature;BME280_humidity;BME280_pressure;Samples;Min_cycle;Max_cycle;Signal;HPM_P1;HPM_P2
2023/01/24 00:01:27;;;;;;;34.08;14.87;;;;;;;-3.25;69.74;102764.31;1850413;77;21108;-53
2023/01/24 00:03:56;;;;;;;62.90;15.15;;;;;;;-3.25;69.75;102777.61;1846807;77;21169;-47
2023/01/24 00:06:25;;;;;;;47.35;18.23;;;;;;;-3.29;69.80;102776.11;1847101;77;21147;-48
2023/01/24 00:08:54;;;;;;;36.38;12.28;;;;;;;-3.30;69.72;102776.11;1850481;76;21058;-49
2023/01/24 00:11:22;;;;;;;47.33;17.80;;;;;;;-3.31;69.75;102780.77;1848495;77;21185;-50
2023/01/24 00:13:51;;;;;;;58.52;17.07;;;;;;;-3.32;69.76;102782.84;1845886;77;21221;-50
2023/01/24 00:16:21;;;;;;;42.25;18.25;;;;;;;-3.32;69.75;102782.84;1848424;76;21067;-50
2023/01/24 00:18:51;;;;;;;48.90;17.98;;;;;;;-3.33;69.70;102781.09;1848262;77;21217;-52
2023/01/24 00:21:22;;;;;;;49.63;18.27;;;;;;;-3.35;69.72;102777.55;1847847;77;21503;-51
2023/01/24 00:23:53;;;;;;;46.53;16.70;;;;;;;-3.35;69.70;102780.13;1848612;76;21637;-51
2023/01/24 00:26:23;;;;;;;46.05;14.43;;;;;;;-3.37;69.68;102784.33;1847960;76;21213;-51
2023/01/24 00:28:52;;;;;;;46.25;14.95;;;;;;;-3.40;69.77;102780.30;1848558;77;21598;-50
2023/01/24 00:31:22;;;;;;;33.75;12.73;;;;;;;-3.44;69.58;102777.09;1848060;77;21182;-50
2023/01/24 00:33:50;;;;;;;43.33;15.03;;;;;;;-3.42;69.58;102785.78;1848201;76;21143;-51
2023/01/24 00:36:19;;;;;;;40.20;17.32;;;;;;;-3.42;69.50;102793.50;1848190;77;21236;-52
2023/01/24 00:38:48;;;;;;;53.35;19.25;;;;;;;-3.44;69.61;102787.39;1844076;76;21135;-50
2023/01/24 00:41:16;;;;;;;46.75;18.67;;;;;;;-3.45;69.60;102798.48;1849710;76;21049;-49
2023/01/24 00:43:45;;;;;;;42.00;15.68;;;;;;;-3.45;69.67;102795.91;1848964;76;21106;-47
2023/01/24 00:46:13;;;;;;;63.87;22.42;;;;;;;-3.44;69.76;102791.25;1849463;77;21039;-56
2023/01/24 00:48:42;;;;;;;53.35;20.88;;;;;;;-3.42;69.94;102793.09;1849469;77;21118;-55
2023/01/24 00:51:11;;;;;;;48.15;20.55;;;;;;;-3.41;70.21;102791.39;1849346;77;21023;-54
2023/01/24 00:53:39;;;;;;;61.10;20.10;;;;;;;-3.38;70.16;102796.70;1849539;77;21114;-50
2023/01/24 00:56:08;;;;;;;61.13;21.65;;;;;;;-3.42;70.27;102799.94;1849400;77;21053;-51
2023/01/24 00:58:37;;;;;;;60.28;21.42;;;;;;;-3.40;70.40;102799.61;1848208;77;21094;-52
2023/01/24 01:01:07;;;;;;;40.88;16.25;;;;;;;-3.41;70.43;102802.98;1826120;77;21191;-53
2023/01/24 01:03:38;;;;;;;46.28;18.37;;;;;;;-3.45;70.55;102788.19;1820141;78;21164;-54
2023/01/24 01:06:10;;;;;;;32.28;14.33;;;;;;;-3.36;70.44;102796.37;1820044;78;21525;-54
2023/01/24 01:08:38;;;;;;;49.23;18.37;;;;;;;-3.33;70.40;102804.28;1820191;78;22291;-53
2023/01/24 01:11:08;;;;;;;59.30;18.00;;;;;;;-3.32;70.43;102795.72;1820372;78;21144;-53
2023/01/24 01:13:36;;;;;;;48.65;18.75;;;;;;;-3.30;70.50;102801.45;1820593;78;21117;-46
2023/01/24 01:16:16;;;;;;;59.48;20.65;;;;;;;-3.30;70.64;102798.00;1820478;78;21219;-51
2023/01/24 01:18:46;;;;;;;50.63;17.15;;;;;;;-3.31;70.68;102794.93;1828352;78;21509;-53
2023/01/24 01:21:17;;;;;;;42.58;15.10;;;;;;;-3.28;70.62;102794.19;1828543;77;21492;-56
2023/01/24 01:23:46;;;;;;;44.73;14.45;;;;;;;-3.26;70.47;102793.48;1828162;78;21642;-61
2023/01/24 01:26:18;;;;;;;45.70;18.30;;;;;;;-3.21;70.34;102789.45;1834384;77;21034;-60
2023/01/24 01:28:47;;;;;;;49.63;19.32;;;;;;;-3.14;70.27;102788.05;1834682;77;21123;-56
2023/01/24 01:31:21;;;;;;;39.42;17.95;;;;;;;-3.09;70.25;102790.87;1834801;77;21148;-59
2023/01/24 01:33:50;;;;;;;48.70;16.10;;;;;;;-3.06;70.24;102795.77;1834320;78;21484;-58
2023/01/24 01:36:18;;;;;;;52.78;18.82;;;;;;;-3.02;70.27;102798.10;1834546;77;21123;-56
2023/01/24 01:38:47;;;;;;;62.15;19.50;;;;;;;-2.99;70.27;102800.81;1834546;77;21029;-58
2023/01/24 01:41:16;;;;;;;61.08;20.02;;;;;;;-2.94;70.29;102804.50;1834261;77;21147;-61
2023/01/24 01:46:40;;;;;;;49.58;17.20;;;;;;;-2.85;70.13;102803.67;1834190;78;21045;-60
2023/01/24 01:49:11;;;;;;;80.10;19.48;;;;;;;-2.82;70.08;102798.67;1834238;77;21595;-61
2023/01/24 01:51:46;;;;;;;63.85;22.02;;;;;;;-2.79;70.01;102805.25;1834660;76;21059;-59
2023/01/24 01:54:20;;;;;;;73.78;21.05;;;;;;;-2.78;69.99;102808.32;1834321;77;21098;-58
2023/01/24 01:56:58;;;;;;;53.87;22.45;;;;;;;-2.79;69.90;102803.95;1828820;77;21161;-54
2023/01/24 01:59:30;;;;;;;76.55;29.57;;;;;;;-2.79;69.83;102803.95;1825502;77;21108;-49
2023/01/24 02:02:00;;;;;;;75.57;27.80;;;;;;;-2.79;69.83;102806.54;1828308;78;21117;-46
2023/01/24 02:04:31;;;;;;;94.90;35.13;;;;;;;-2.80;69.83;102803.50;1804552;79;21047;-48
2023/01/24 02:07:03;;;;;;;64.55;23.42;;;;;;;-2.80;69.85;102808.66;1809792;78;21027;-46
2023/01/24 02:09:40;;;;;;;53.52;22.65;;;;;;;-2.78;69.84;102803.58;1817782;79;21051;-49
2023/01/24 02:12:12;;;;;;;74.00;26.50;;;;;;;-2.80;69.81;102809.95;1816657;78;21107;-58
2023/01/24 02:17:31;;;;;;;66.55;24.50;;;;;;;-2.83;69.80;102805.04;1817719;78;21036;-50
2023/01/24 02:20:05;;;;;;;72.90;26.17;;;;;;;-2.88;69.86;102799.64;1818137;79;21160;-52
2023/01/24 02:22:49;;;;;;;96.63;30.43;;;;;;;-2.88;69.90;102797.06;1818508;78;21126;-55
2023/01/24 02:25:27;;;;;;;132.07;32.75;;;;;;;-2.88;69.90;102799.64;1818999;78;21251;-56
2023/01/24 02:27:58;;;;;;;81.55;26.70;;;;;;;-2.88;69.91;102801.34;1824095;77;21518;-54
2023/01/24 02:30:27;;;;;;;218.78;29.65;;;;;;;-2.91;69.92;102800.39;1825986;78;21134;-51
2023/01/24 02:32:56;;;;;;;64.27;14.87;;;;;;;-2.92;70.00;102805.46;1805524;78;21142;-51
2023/01/24 02:35:30;;;;;;;38.85;13.98;;;;;;;-2.97;70.38;102804.34;1810347;78;21181;-53
2023/01/24 02:38:01;;;;;;;66.97;20.02;;;;;;;-2.99;70.36;102799.14;1822465;77;21137;-55
2023/01/24 02:40:31;;;;;;;99.25;22.95;;;;;;;-2.96;70.46;102798.39;1818137;78;21043;-55
2023/01/24 02:43:03;;;;;;;192.43;27.58;;;;;;;-2.94;70.50;102796.77;1820280;79;21588;-51
2023/01/24 02:45:35;;;;;;;177.70;24.55;;;;;;;-2.91;70.45;102797.81;1823236;79;21562;-54
2023/01/24 02:48:04;;;;;;;84.30;15.20;;;;;;;-2.86;70.46;102800.59;1823193;77;21197;-55
2023/01/24 02:53:29;;;;;;;286.10;31.15;;;;;;;-2.81;70.37;102799.14;1823384;78;21111;-56
2023/01/24 02:58:36;;;;;;;78.37;12.60;;;;;;;-2.89;70.87;102804.75;1829181;78;21089;-55
2023/01/24 03:01:06;;;;;;;194.20;21.65;;;;;;;-2.98;71.15;102790.58;1819265;77;21165;-55
2023/01/24 03:03:36;;;;;;;265.92;32.00;;;;;;;-2.99;71.09;102794.36;1817741;77;21129;-54
2023/01/24 03:06:05;;;;;;;99.87;18.48;;;;;;;-3.05;71.31;102792.78;1815158;79;21602;-55
2023/01/24 03:08:36;;;;;;;189.57;21.55;;;;;;;-3.15;71.76;102776.86;1814992;79;21777;-56
2023/01/24 03:11:07;;;;;;;104.72;13.98;;;;;;;-3.13;71.69;102788.12;1815057;79;21750;-48
2023/01/24 03:35:58;;;;;;;65.62;14.25;;;;;;;-3.33;73.34;102791.39;1813148;78;21599;-53
2023/01/24 03:41:14;;;;;;;52.13;11.55;;;;;;;-3.37;73.36;102790.77;1813296;79;21158;-56
2023/01/24 03:43:43;;;;;;;35.52;12.45;;;;;;;-3.36;73.52;102798.95;1813525;78;21715;-55
2023/01/24 03:46:12;;;;;;;56.58;17.27;;;;;;;-3.35;73.74;102795.17;1812944;79;21070;-56
2023/01/24 03:48:45;;;;;;;50.78;16.37;;;;;;;-3.34;73.51;102800.83;1812161;79;21163;-54
2023/01/24 03:54:01;;;;;;;199.62;30.25;;;;;;;-3.27;73.24;102803.29;1813188;79;21124;-55
2023/01/24 03:56:31;;;;;;;216.85;28.23;;;;;;;-3.28;73.31;102794.19;1812179;77;21130;-54
2023/01/24 03:59:01;;;;;;;234.12;24.20;;;;;;;-3.39;73.74;102807.84;1813501;78;21133;-55
2023/01/24 04:01:31;;;;;;;115.85;21.73;;;;;;;-3.51;74.16;102788.34;1822768;77;21176;-52
2023/01/24 04:04:02;;;;;;;73.12;17.55;;;;;;;-3.51;74.07;102792.20;1839453;77;21488;-57
2023/01/24 04:06:30;;;;;;;57.45;17.20;;;;;;;-3.54;73.98;102792.07;1834065;77;21078;-55
2023/01/24 04:08:59;;;;;;;55.48;17.62;;;;;;;-3.54;74.01;102795.02;1817571;77;21083;-56
2023/01/24 04:11:28;;;;;;;45.00;14.25;;;;;;;-3.55;74.00;102796.72;1834353;78;21137;-57
2023/01/24 04:13:58;;;;;;;68.02;12.55;;;;;;;-3.54;74.07;102804.95;1841264;77;21591;-52
2023/01/24 04:16:27;;;;;;;122.45;19.00;;;;;;;-3.54;74.07;102804.95;1841753;77;21153;-56
2023/01/24 04:19:09;;;;;;;177.30;28.73;;;;;;;-3.56;73.99;102810.80;1830245;78;21055;-55
2023/01/24 04:21:38;;;;;;;16.07;9.43;;;;;;;-3.59;74.20;102810.25;1840869;78;21088;-53
2023/01/24 04:24:07;;;;;;;72.30;20.30;;;;;;;-3.58;74.19;102813.33;1833466;77;21644;-52
2023/01/24 04:26:37;;;;;;;95.50;21.55;;;;;;;-3.53;74.06;102808.39;1816216;78;21175;-53
2023/01/24 04:29:07;;;;;;;192.55;28.42;;;;;;;-3.43;73.88;102818.77;1839011;78;21551;-52
2023/01/24 04:31:36;;;;;;;90.85;24.37;;;;;;;-3.39;73.85;102818.14;1839557;77;21242;-51
2023/01/24 04:34:10;;;;;;;89.50;23.40;;;;;;;-3.35;73.72;102819.65;1839895;77;21183;-49
2023/01/24 04:36:39;;;;;;;48.85;16.57;;;;;;;-3.31;73.55;102819.41;1839487;78;21642;-46
2023/01/24 04:39:08;;;;;;;93.87;21.00;;;;;;;-3.27;73.42;102822.61;1839246;78;21301;-51
2023/01/24 04:41:39;;;;;;;39.70;15.48;;;;;;;-3.24;73.38;102829.22;1838509;77;21607;-51
2023/01/24 04:44:08;;;;;;;100.97;23.30;;;;;;;-3.18;73.21;102832.10;1839525;78;21217;-52
2023/01/24 04:46:37;;;;;;;47.75;14.70;;;;;;;-3.18;73.21;102832.10;1839653;77;21281;-52
2023/01/24 04:49:05;;;;;;;28.47;9.15;;;;;;;-3.13;73.01;102834.52;1839386;77;21061;-51
2023/01/24 04:51:41;;;;;;;76.05;23.12;;;;;;;-3.13;72.88;102835.80;1838654;78;21061;-51
2023/01/24 04:54:12;;;;;;;73.10;21.93;;;;;;;-3.12;72.75;102836.30;1839877;77;21163;-52
2023/01/24 04:56:41;;;;;;;63.78;19.90;;;;;;;-3.09;72.66;102832.11;1839333;78;21167;-53
2023/01/24 04:59:12;;;;;;;46.35;17.10;;;;;;;-3.06;72.65;102839.97;1839286;78;21120;-50
2023/01/24 05:01:42;;;;;;;73.70;19.37;;;;;;;-3.04;72.87;102843.50;1837541;77;21305;-52
2023/01/24 05:04:12;;;;;;;72.70;23.62;;;;;;;-3.04;72.61;102834.48;1825041;78;21092;-56
2023/01/24 05:06:41;;;;;;;65.95;19.42;;;;;;;-3.01;72.66;102846.25;1827306;78;21136;-53
2023/01/24 05:09:10;;;;;;;63.85;20.32;;;;;;;-2.98;72.60;102842.55;1827340;78;21175;-55
2023/01/24 05:11:40;;;;;;;125.50;27.20;;;;;;;-2.97;72.60;102845.59;1825768;78;21226;-56
2023/01/24 05:14:18;;;;;;;158.25;25.97;;;;;;;-2.97;72.62;102850.36;1827134;77;21473;-54
2023/01/24 05:16:46;;;;;;;89.87;21.00;;;;;;;-3.02;72.89;102846.66;1827868;78;21095;-54
2023/01/24 05:19:15;;;;;;;87.15;18.00;;;;;;;-3.04;72.93;102856.39;1825018;78;21104;-55
2023/01/24 05:21:44;;;;;;;83.60;22.00;;;;;;;-3.06;73.11;102856.34;1828208;78;21124;-52
2023/01/24 05:24:14;;;;;;;42.88;15.40;;;;;;;-3.14;73.32;102855.92;1828942;78;21622;-54
2023/01/24 05:26:43;;;;;;;189.15;30.43;;;;;;;-3.08;73.34;102859.63;1829502;77;21128;-52
2023/01/24 05:29:12;;;;;;;75.15;22.13;;;;;;;-3.01;73.25;102861.71;1829172;78;21574;-53
2023/01/24 05:31:41;;;;;;;49.70;12.13;;;;;;;-2.95;73.22;102868.08;1829359;78;21600;-56
2023/01/24 05:34:10;;;;;;;119.72;24.90;;;;;;;-2.95;73.35;102873.23;1829513;78;21065;-54
2023/01/24 05:36:39;;;;;;;91.15;22.73;;;;;;;-2.90;73.27;102870.87;1805856;78;21258;-48
2023/01/24 05:39:08;;;;;;;44.18;16.17;;;;;;;-2.84;73.25;102875.07;1828702;78;21516;-47
2023/01/24 05:41:37;;;;;;;46.68;14.73;;;;;;;-2.77;73.17;102876.23;1829920;78;21179;-48
2023/01/24 05:44:06;;;;;;;75.20;22.87;;;;;;;-2.71;73.07;102876.56;1829238;78;21140;-54
2023/01/24 05:46:36;;;;;;;160.90;29.72;;;;;;;-2.64;72.92;102872.58;1828916;78;21154;-52
2023/01/24 05:49:13;;;;;;;131.25;24.85;;;;;;;-2.60;72.89;102875.40;1827986;78;21199;-49
2023/01/24 05:51:43;;;;;;;108.67;24.05;;;;;;;-2.68;73.09;102880.98;1829366;78;21080;-50
2023/01/24 05:54:13;;;;;;;18.98;7.60;;;;;;;-2.70;73.26;102881.31;1829509;78;21614;-51
2023/01/24 05:56:49;;;;;;;78.12;22.07;;;;;;;-2.74;73.42;102883.73;1828675;78;21057;-51
2023/01/24 05:59:18;;;;;;;76.97;24.20;;;;;;;-2.63;73.41;102881.69;1829100;78;21089;-52
2023/01/24 06:01:47;;;;;;;77.55;23.30;;;;;;;-2.57;73.30;102873.36;1829233;78;21089;-50
2023/01/24 06:04:16;;;;;;;103.35;25.40;;;;;;;-2.50;73.34;102883.17;1838615;77;21700;-47
2023/01/24 06:06:45;;;;;;;95.67;23.50;;;;;;;-2.49;73.42;102887.92;1838945;77;21060;-47
2023/01/24 06:09:14;;;;;;;111.15;21.65;;;;;;;-2.48;73.54;102888.00;1814309;77;21180;-49
2023/01/24 06:11:43;;;;;;;156.15;19.32;;;;;;;-2.42;73.55;102894.74;1812970;77;21057;-49
2023/01/24 06:14:13;;;;;;;214.42;28.77;;;;;;;-2.40;73.55;102889.28;1815462;77;21175;-50
2023/01/24 06:16:45;;;;;;;135.57;23.70;;;;;;;-2.37;73.68;102888.12;1813216;77;21496;-50
2023/01/24 06:19:15;;;;;;;165.37;26.25;;;;;;;-2.31;73.54;102890.52;1809196;79;21054;-51
2023/01/24 06:21:55;;;;;;;103.42;22.65;;;;;;;-2.25;73.37;102889.13;1812886;77;21450;-50
2023/01/24 06:24:27;;;;;;;95.60;27.00;;;;;;;-2.22;73.25;102891.84;1821653;77;21057;-51
2023/01/24 06:27:14;;;;;;;153.12;20.17;;;;;;;-2.13;73.27;102892.70;1828484;77;21163;-50
2023/01/24 06:29:44;;;;;;;198.60;30.70;;;;;;;-2.03;73.05;102892.34;1813474;77;21509;-49
2023/01/24 06:32:34;;;;;;;99.60;23.98;;;;;;;-2.01;72.96;102897.16;1812506;77;21521;-46
2023/01/24 06:35:28;;;;;;;34.08;12.07;;;;;;;-2.01;73.00;102897.16;1826402;77;21195;-49
2023/01/24 06:37:58;;;;;;;59.10;18.48;;;;;;;-1.89;73.01;102899.84;1827556;78;21117;-51
2023/01/24 06:40:30;;;;;;;61.45;14.87;;;;;;;-1.77;72.85;102900.39;1826959;77;21609;-48
2023/01/24 06:43:00;;;;;;;148.40;21.17;;;;;;;-1.63;72.79;102903.20;1837368;77;21468;-49
2023/01/24 06:45:28;;;;;;;67.90;14.45;;;;;;;-1.50;72.54;102905.06;1838729;77;21602;-47
2023/01/24 06:47:57;;;;;;;73.72;16.17;;;;;;;-1.43;72.41;102905.41;1838308;77;21166;-55
2023/01/24 06:50:29;;;;;;;40.30;14.33;;;;;;;-1.39;72.18;102901.27;1811139;79;21123;-54
2023/01/24 06:52:56;;;;;;;27.65;10.18;;;;;;;-1.32;72.00;102899.43;1812950;77;21057;-54
2023/01/24 06:55:25;;;;;;;70.55;17.10;;;;;;;-1.23;71.87;102905.01;1826985;77;21025;-51
2023/01/24 06:58:02;;;;;;;39.20;10.35;;;;;;;-1.18;71.75;102902.22;1838665;77;21507;-52
2023/01/24 07:00:31;;;;;;;36.00;13.15;;;;;;;-1.13;71.73;102909.30;1839090;77;21142;-51
2023/01/24 07:03:02;;;;;;;64.62;14.73;;;;;;;-1.13;71.67;102908.00;1833022;77;21135;-50
2023/01/24 07:05:33;;;;;;;92.27;15.05;;;;;;;-1.14;71.58;102904.92;1812814;78;21104;-51
2023/01/24 07:08:07;;;;;;;45.92;13.55;;;;;;;-1.13;71.54;102901.12;1827576;78;21097;-49
2023/01/24 07:10:36;;;;;;;42.17;13.05;;;;;;;-1.08;71.74;102908.67;1829320;78;21049;-48
2023/01/24 07:13:04;;;;;;;157.40;23.90;;;;;;;-0.99;71.64;102897.86;1829209;78;21136;-47
2023/01/24 07:15:33;;;;;;;166.35;20.68;;;;;;;-0.97;71.70;102898.38;1829308;78;21065;-48
2023/01/24 07:18:14;;;;;;;118.65;16.45;;;;;;;-0.93;71.96;102901.11;1829190;78;21073;-47
2023/01/24 07:20:43;;;;;;;80.22;17.40;;;;;;;-0.81;72.08;102900.36;1829399;78;21119;-55
2023/01/24 07:23:23;;;;;;;55.98;14.38;;;;;;;-0.78;72.01;102893.58;1828988;78;21065;-51
2023/01/24 07:25:53;;;;;;;115.47;18.92;;;;;;;-0.67;71.85;102892.73;1829362;78;21128;-50
2023/01/24 07:28:22;;;;;;;78.60;19.65;;;;;;;-0.64;71.83;102897.17;1829194;78;21493;-52
2023/01/24 07:30:52;;;;;;;180.72;25.02;;;;;;;-0.57;71.86;102887.95;1829040;78;21151;-55
2023/01/24 07:33:21;;;;;;;66.75;20.10;;;;;;;-0.43;71.87;102893.28;1829042;78;21183;-56
2023/01/24 07:35:50;;;;;;;78.37;17.42;;;;;;;-0.32;71.84;102902.78;1829244;78;21101;-56
2023/01/24 07:38:18;;;;;;;65.92;18.35;;;;;;;-0.23;71.90;102903.16;1829221;78;21151;-55
2023/01/24 07:40:47;;;;;;;67.67;18.90;;;;;;;-0.22;71.85;102901.05;1829262;78;21090;-55
2023/01/24 07:43:16;;;;;;;105.32;17.73;;;;;;;-0.13;71.76;102905.30;1829123;78;21070;-55
2023/01/24 07:45:47;;;;;;;45.00;15.88;;;;;;;-0.04;71.69;102904.37;1829267;77;21065;-56
2023/01/24 07:48:16;;;;;;;77.53;18.07;;;;;;;0.03;71.65;102900.30;1829253;78;21140;-55
2023/01/24 07:50:45;;;;;;;116.00;19.45;;;;;;;0.11;71.37;102899.30;1829254;78;21073;-55
2023/01/24 07:53:13;;;;;;;78.60;17.12;;;;;;;0.16;71.22;102896.05;1829154;78;21619;-56
2023/01/24 07:55:42;;;;;;;130.85;20.45;;;;;;;0.15;71.46;102901.20;1829231;78;21139;-55
2023/01/24 07:58:10;;;;;;;61.92;19.70;;;;;;;0.24;71.50;102900.27;1829269;78;21144;-56
2023/01/24 08:00:39;;;;;;;100.02;22.58;;;;;;;0.30;71.70;102905.67;1827001;78;21228;-58
2023/01/24 08:03:09;;;;;;;51.08;16.70;;;;;;;0.44;71.63;102906.59;1827987;78;21112;-50
2023/01/24 08:05:39;;;;;;;66.10;17.98;;;;;;;0.61;71.41;102906.83;1828109;78;21246;-56
2023/01/24 08:08:11;;;;;;;58.02;18.07;;;;;;;0.79;71.15;102909.60;1824115;78;21198;-53
2023/01/24 08:10:39;;;;;;;60.98;18.30;;;;;;;0.95;70.95;102901.55;1797009;80;21040;-55
2023/01/24 08:13:08;;;;;;;81.50;22.17;;;;;;;1.01;70.54;102897.86;1829047;78;21227;-52
2023/01/24 08:15:37;;;;;;;39.03;13.38;;;;;;;1.11;70.50;102894.77;1828784;78;21135;-49
2023/01/24 08:18:05;;;;;;;57.15;17.92;;;;;;;1.15;70.35;102895.34;1829137;78;21140;-50
2023/01/24 08:20:34;;;;;;;62.67;18.02;;;;;;;1.27;70.37;102888.80;1829317;77;21107;-51
2023/01/24 08:23:03;;;;;;;52.80;17.45;;;;;;;1.34;70.36;102885.58;1829355;78;21054;-61
2023/01/24 08:25:33;;;;;;;59.35;19.85;;;;;;;1.40;70.59;102881.88;1829164;78;21061;-62
2023/01/24 08:28:03;;;;;;;51.37;17.15;;;;;;;1.49;70.57;102886.50;1828371;78;21034;-52
2023/01/24 08:30:33;;;;;;;67.67;18.85;;;;;;;1.54;70.52;102884.52;1829338;77;21061;-54
2023/01/24 08:33:04;;;;;;;50.48;18.45;;;;;;;1.63;70.45;102883.94;1828899;77;21022;-48
2023/01/24 08:35:33;;;;;;;67.05;19.73;;;;;;;1.65;70.48;102876.20;1829290;78;21053;-54
2023/01/24 08:38:04;;;;;;;42.53;15.35;;;;;;;1.65;70.31;102874.91;1829109;77;21227;-53
2023/01/24 08:40:32;;;;;;;38.60;14.50;;;;;;;1.67;70.16;102875.84;1824220;78;21083;-54
2023/01/24 08:43:01;;;;;;;64.77;22.98;;;;;;;1.74;69.94;102872.60;1806046;79;21466;-54
2023/01/24 08:45:31;;;;;;;66.40;22.58;;;;;;;1.77;69.57;102866.22;1822505;78;21140;-56
2023/01/24 08:48:01;;;;;;;67.12;25.15;;;;;;;1.77;69.36;102862.32;1827637;78;21589;-56
2023/01/24 08:50:30;;;;;;;46.45;14.53;;;;;;;1.88;69.35;102860.94;1828126;78;21120;-54
2023/01/24 08:52:58;;;;;;;56.83;16.10;;;;;;;2.01;69.20;102861.29;1821882;78;21072;-55
2023/01/24 08:55:27;;;;;;;55.98;15.75;;;;;;;2.13;69.08;102861.67;1829286;78;21164;-55
2023/01/24 08:57:59;;;;;;;74.70;20.50;;;;;;;2.38;69.09;102858.08;1829316;78;21105;-55
2023/01/24 09:00:30;;;;;;;47.20;15.45;;;;;;;2.43;68.90;102851.27;1826135;77;21045;-54
2023/01/24 09:03:00;;;;;;;56.63;16.40;;;;;;;2.44;68.78;102853.47;1806722;78;21135;-56
2023/01/24 09:05:30;;;;;;;61.13;18.90;;;;;;;2.35;68.81;102855.38;1828045;78;21089;-54
2023/01/24 09:08:00;;;;;;;46.63;17.37;;;;;;;2.29;69.17;102850.02;1840677;77;21595;-51
2023/01/24 09:10:30;;;;;;;54.75;16.70;;;;;;;2.37;69.37;102852.83;1841669;77;21055;-52
2023/01/24 09:12:59;;;;;;;67.10;19.23;;;;;;;2.43;69.05;102851.27;1840572;77;21080;-48
2023/01/24 09:15:27;;;;;;;35.95;13.35;;;;;;;2.49;69.06;102854.06;1841194;77;21055;-55
2023/01/24 09:17:56;;;;;;;56.77;17.87;;;;;;;2.52;69.10;102846.75;1841452;77;21142;-54
2023/01/24 09:20:25;;;;;;;63.68;17.50;;;;;;;2.46;68.89;102845.30;1840925;78;21043;-53
2023/01/24 09:22:55;;;;;;;66.92;19.27;;;;;;;2.39;68.72;102842.05;1841562;76;21150;-53
2023/01/24 09:25:23;;;;;;;63.92;19.60;;;;;;;2.53;68.71;102835.53;1841136;76;21059;-54
2023/01/24 09:27:56;;;;;;;62.53;20.75;;;;;;;2.64;68.51;102838.00;1841225;77;21129;-53
2023/01/24 09:30:24;;;;;;;70.80;21.20;;;;;;;2.68;68.07;102836.37;1841481;76;21070;-54
2023/01/24 09:32:53;;;;;;;52.20;18.52;;;;;;;2.65;68.01;102837.14;1841348;77;21047;-53
2023/01/24 09:35:22;;;;;;;81.55;18.45;;;;;;;2.60;67.96;102837.47;1841484;77;21047;-54
2023/01/24 09:37:52;;;;;;;61.95;20.23;;;;;;;2.54;68.08;102835.10;1841422;77;21553;-53
2023/01/24 09:40:46;;;;;;;60.38;18.40;;;;;;;2.54;68.16;102833.37;1841348;76;21023;-54
2023/01/24 09:43:18;;;;;;;62.25;18.02;;;;;;;2.53;68.31;102830.33;1841821;77;21573;-53
2023/01/24 09:45:58;;;;;;;57.67;19.30;;;;;;;2.50;68.37;102826.33;1843430;76;21090;-55
2023/01/24 09:48:28;;;;;;;59.23;18.50;;;;;;;2.54;68.25;102830.77;1836589;76;21525;-51
2023/01/24 09:51:00;;;;;;;54.20;20.00;;;;;;;2.65;68.09;102821.54;1841869;77;21032;-55
2023/01/24 09:53:43;;;;;;;44.83;15.43;;;;;;;2.84;68.09;102814.22;1841368;76;21095;-54
2023/01/24 09:56:26;;;;;;;60.30;19.82;;;;;;;3.03;68.00;102821.68;1841625;77;21051;-53
2023/01/24 09:59:15;;;;;;;63.05;21.12;;;;;;;3.26;67.51;102819.67;1841567;76;21495;-53
2023/01/24 10:01:44;;;;;;;58.58;16.45;;;;;;;3.47;67.33;102821.90;1832754;78;21063;-54
2023/01/24 10:04:33;;;;;;;58.25;18.52;;;;;;;3.77;66.66;102816.93;1841565;77;21063;-53
2023/01/24 10:07:07;;;;;;;29.98;12.35;;;;;;;4.29;65.75;102814.98;1841493;77;21091;-52
2023/01/24 10:09:57;;;;;;;33.78;12.85;;;;;;;5.54;63.48;102801.08;1851845;76;21522;-52
2023/01/24 10:12:29;;;;;;;54.27;18.52;;;;;;;6.52;61.33;102796.27;1850506;77;21046;-52
2023/01/24 10:15:17;;;;;;;53.25;18.12;;;;;;;6.83;60.61;102796.14;1851088;76;21083;-52
2023/01/24 10:18:05;;;;;;;66.07;19.07;;;;;;;7.54;59.46;102794.97;1850678;77;21098;-52
2023/01/24 10:20:46;;;;;;;65.45;23.42;;;;;;;8.74;57.27;102785.83;1851274;76;21576;-51
2023/01/24 10:23:23;;;;;;;72.65;21.85;;;;;;;9.50;55.80;102788.90;1851301;76;21132;-51
2023/01/24 10:25:57;;;;;;;60.80;18.17;;;;;;;9.38;55.72;102784.96;1850496;77;21125;-52
2023/01/24 10:28:29;;;;;;;73.22;24.43;;;;;;;8.63;56.89;102787.13;1850504;76;21552;-52
2023/01/24 10:31:16;;;;;;;56.80;16.67;;;;;;;9.31;55.68;102780.59;1850435;76;21051;-51
2023/01/24 10:33:52;;;;;;;45.28;15.45;;;;;;;9.57;54.87;102780.13;1850517;77;21552;-52
2023/01/24 10:36:57;;;;;;;40.08;12.58;;;;;;;9.35;54.85;102782.33;1850453;76;21055;-53
2023/01/24 10:39:27;;;;;;;91.70;32.50;;;;;;;8.50;55.67;102775.30;1852389;77;21145;-52
2023/01/24 10:41:56;;;;;;;58.58;18.27;;;;;;;8.26;56.45;102775.18;1851226;77;21011;-52
2023/01/24 10:44:40;;;;;;;49.58;16.93;;;;;;;8.53;55.81;102772.23;1850475;77;21128;-50
2023/01/24 10:47:43;;;;;;;41.00;14.80;;;;;;;8.38;55.67;102766.48;1850515;76;21126;-51
2023/01/24 10:50:15;;;;;;;56.00;19.85;;;;;;;8.94;54.53;102767.02;1850535;77;21157;-51
2023/01/24 10:52:46;;;;;;;40.55;15.00;;;;;;;9.53;53.03;102761.26;1850444;77;21055;-52
2023/01/24 10:55:27;;;;;;;56.53;20.37;;;;;;;10.05;51.93;102764.15;1850461;77;21031;-52
2023/01/24 10:57:56;;;;;;;64.90;23.67;;;;;;;10.19;51.37;102757.52;1850671;76;21106;-51
2023/01/24 11:00:39;;;;;;;61.45;22.58;;;;;;;10.46;51.04;102749.94;1850654;77;21067;-52
2023/01/24 11:03:23;;;;;;;80.70;32.03;;;;;;;10.82;50.38;102747.45;1850535;76;21042;-53
2023/01/24 11:05:54;;;;;;;71.33;22.48;;;;;;;10.96;49.98;102748.68;1848470;76;21233;-55
2023/01/24 11:08:26;;;;;;;79.25;27.70;;;;;;;10.98;49.88;102744.72;1835103;78;21150;-52
2023/01/24 11:10:58;;;;;;;67.65;19.20;;;;;;;10.98;49.57;102746.03;1835264;77;21055;-54
2023/01/24 11:13:33;;;;;;;65.32;22.65;;;;;;;10.90;49.83;102750.06;1835208;78;21217;-53
2023/01/24 11:16:08;;;;;;;56.55;18.80;;;;;;;10.99;49.76;102745.13;1835170;78;21547;-52
2023/01/24 11:18:37;;;;;;;61.63;18.85;;;;;;;11.03;49.63;102743.34;1835169;78;21048;-52
2023/01/24 11:21:11;;;;;;;69.60;21.07;;;;;;;10.66;50.54;102745.86;1835194;78;21132;-52
2023/01/24 11:23:45;;;;;;;55.50;17.95;;;;;;;10.24;51.22;102743.89;1834782;77;21168;-52
2023/01/24 11:26:23;;;;;;;52.27;17.10;;;;;;;10.45;50.74;102745.99;1835178;78;21546;-53
2023/01/24 11:29:05;;;;;;;61.02;24.10;;;;;;;10.90;49.93;102744.79;1835086;78;21088;-53
2023/01/24 11:31:39;;;;;;;41.15;15.30;;;;;;;11.03;49.20;102738.06;1835234;78;21051;-51
2023/01/24 11:34:46;;;;;;;28.35;11.50;;;;;;;10.87;49.07;102738.21;1834851;77;21601;-53
2023/01/24 11:37:26;;;;;;;44.18;15.65;;;;;;;10.86;49.06;102744.81;1835287;78;21557;-51
2023/01/24 11:40:03;;;;;;;39.95;14.13;;;;;;;10.77;49.24;102745.33;1835164;78;21056;-52
2023/01/24 11:42:38;;;;;;;31.90;10.88;;;;;;;10.80;49.14;102742.65;1835597;77;21088;-52
2023/01/24 11:45:29;;;;;;;35.90;13.22;;;;;;;10.78;48.91;102737.84;1835818;77;21498;-52
2023/01/24 11:48:00;;;;;;;28.77;10.75;;;;;;;10.58;48.97;102745.88;1835393;77;21761;-52
2023/01/24 11:50:34;;;;;;;45.60;15.20;;;;;;;10.40;49.46;102741.64;1834808;78;21089;-53
2023/01/24 11:53:30;;;;;;;28.92;10.15;;;;;;;10.07;49.84;102748.35;1835447;78;21079;-52
2023/01/24 11:56:08;;;;;;;28.75;8.73;;;;;;;10.01;50.05;102746.62;1835212;78;21055;-54
2023/01/24 11:58:54;;;;;;;34.58;11.57;;;;;;;9.62;50.27;102745.90;1835701;77;21130;-53
2023/01/24 12:01:47;;;;;;;23.45;10.45;;;;;;;9.35;50.55;102746.83;1835278;78;21043;-52
2023/01/24 12:04:25;;;;;;;44.90;14.10;;;;;;;9.11;50.84;102747.33;1835206;77;21056;-51
2023/01/24 12:06:56;;;;;;;34.08;12.10;;;;;;;8.92;51.14;102744.26;1833476;78;21080;-52
2023/01/24 12:09:31;;;;;;;28.50;10.98;;;;;;;8.83;51.13;102747.30;1830292;77;21134;-51
2023/01/24 12:12:08;;;;;;;42.43;14.15;;;;;;;8.68;51.49;102754.73;1829792;76;21374;-52